sensor_id;sensor_type;location;lat;lon;timestamp;P1;durP1;ratioP1;P2;durP2;ratioP2
51270;SDS011;37744;50.960;4.136;2023-05-07T00:00:07;9.82;;;3.95;;
51270;SDS011;37744;50.960;4.136;2023-05-07T00:02:33;16.30;;;4.30;;
51270;SDS011;37744;50.960;4.136;2023-05-07T00:04:58;13.43;;;4.22;;
51270;SDS011;37744;50.960;4.136;2023-05-07T00:07:23;9.20;;;3.83;;
51270;SDS011;37744;50.960;4.136;2023-05-07T00:09:49;9.98;;;3.80;;
51270;SDS011;37744;50.960;4.136;2023-05-07T00:12:14;11.70;;;3.80;;
51270;SDS011;37744;50.960;4.136;2023-05-07T00:14:39;13.57;;;4.20;;
51270;SDS011;37744;50.960;4.136;2023-05-07T00:17:05;10.35;;;4.20;;
51270;SDS011;37744;50.960;4.136;2023-05-07T00:19:30;8.82;;;4.20;;
51270;SDS011;37744;50.960;4.136;2023-05-07T00:21:56;10.75;;;4.35;;
51270;SDS011;37744;50.960;4.136;2023-05-07T00:24:23;13.07;;;4.43;;
51270;SDS011;37744;50.960;4.136;2023-05-07T00:26:48;13.95;;;4.22;;
51270;SDS011;37744;50.960;4.136;2023-05-07T00:29:14;8.23;;;3.83;;
51270;SDS011;37744;50.960;4.136;2023-05-07T00:31:39;12.57;;;3.92;;
51270;SDS011;37744;50.960;4.136;2023-05-07T00:34:04;12.23;;;4.45;;
51270;SDS011;37744;50.960;4.136;2023-05-07T00:36:30;9.05;;;3.92;;
51270;SDS011;37744;50.960;4.136;2023-05-07T00:38:56;7.40;;;3.83;;
51270;SDS011;37744;50.960;4.136;2023-05-07T00:41:22;8.98;;;3.72;;
51270;SDS011;37744;50.960;4.136;2023-05-07T00:43:47;11.48;;;3.78;;
51270;SDS011;37744;50.960;4.136;2023-05-07T00:46:13;9.52;;;4.03;;
51270;SDS011;37744;50.960;4.136;2023-05-07T00:48:38;6.35;;;3.80;;
51270;SDS011;37744;50.960;4.136;2023-05-07T00:51:04;12.13;;;4.35;;
51270;SDS011;37744;50.960;4.136;2023-05-07T00:53:29;6.88;;;3.60;;
51270;SDS011;37744;50.960;4.136;2023-05-07T00:55:55;9.20;;;4.40;;
51270;SDS011;37744;50.960;4.136;2023-05-07T00:58:21;9.93;;;4.10;;
51270;SDS011;37744;50.960;4.136;2023-05-07T01:00:46;12.82;;;4.60;;
51270;SDS011;37744;50.960;4.136;2023-05-07T01:03:11;9.27;;;4.30;;
51270;SDS011;37744;50.960;4.136;2023-05-07T01:05:37;9.00;;;3.92;;
51270;SDS011;37744;50.960;4.136;2023-05-07T01:08:02;6.78;;;3.53;;
51270;SDS011;37744;50.960;4.136;2023-05-07T01:10:28;9.13;;;4.35;;
51270;SDS011;37744;50.960;4.136;2023-05-07T01:12:55;6.00;;;3.58;;
51270;SDS011;37744;50.960;4.136;2023-05-07T01:15:21;9.73;;;4.22;;
51270;SDS011;37744;50.960;4.136;2023-05-07T01:17:47;12.40;;;4.30;;
51270;SDS011;37744;50.960;4.136;2023-05-07T01:20:12;5.45;;;3.40;;
51270;SDS011;37744;50.960;4.136;2023-05-07T01:22:39;6.90;;;3.80;;
51270;SDS011;37744;50.960;4.136;2023-05-07T01:25:05;6.75;;;4.40;;
51270;SDS011;37744;50.960;4.136;2023-05-07T01:27:30;9.02;;;3.70;;
51270;SDS011;37744;50.960;4.136;2023-05-07T01:29:56;7.90;;;3.83;;
51270;SDS011;37744;50.960;4.136;2023-05-07T01:32:24;9.73;;;4.03;;
51270;SDS011;37744;50.960;4.136;2023-05-07T01:34:51;9.30;;;4.15;;
51270;SDS011;37744;50.960;4.136;2023-05-07T01:37:18;9.68;;;4.63;;
51270;SDS011;37744;50.960;4.136;2023-05-07T01:39:43;15.35;;;5.43;;
51270;SDS011;37744;50.960;4.136;2023-05-07T01:42:09;15.65;;;5.63;;
51270;SDS011;37744;50.960;4.136;2023-05-07T01:44:34;11.27;;;5.68;;
51270;SDS011;37744;50.960;4.136;2023-05-07T01:46:59;12.68;;;5.10;;
51270;SDS011;37744;50.960;4.136;2023-05-07T01:49:26;13.57;;;5.15;;
51270;SDS011;37744;50.960;4.136;2023-05-07T01:51:51;10.90;;;5.10;;
51270;SDS011;37744;50.960;4.136;2023-05-07T01:54:17;12.73;;;4.82;;
51270;SDS011;37744;50.960;4.136;2023-05-07T01:56:42;11.85;;;5.30;;
51270;SDS011;37744;50.960;4.136;2023-05-07T01:59:07;14.38;;;5.15;;
51270;SDS011;37744;50.960;4.136;2023-05-07T02:01:32;21.50;;;6.45;;
51270;SDS011;37744;50.960;4.136;2023-05-07T02:03:58;14.15;;;5.40;;
51270;SDS011;37744;50.960;4.136;2023-05-07T02:06:23;11.52;;;5.97;;
51270;SDS011;37744;50.960;4.136;2023-05-07T02:08:48;12.52;;;5.55;;
51270;SDS011;37744;50.960;4.136;2023-05-07T02:11:14;10.13;;;4.70;;
51270;SDS011;37744;50.960;4.136;2023-05-07T02:13:40;12.35;;;5.50;;
51270;SDS011;37744;50.960;4.136;2023-05-07T02:16:05;14.05;;;6.30;;
51270;SDS011;37744;50.960;4.136;2023-05-07T02:18:31;9.57;;;5.80;;
51270;SDS011;37744;50.960;4.136;2023-05-07T02:20:56;10.68;;;5.00;;
51270;SDS011;37744;50.960;4.136;2023-05-07T02:23:22;8.80;;;5.32;;
51270;SDS011;37744;50.960;4.136;2023-05-07T02:25:47;10.75;;;4.63;;
51270;SDS011;37744;50.960;4.136;2023-05-07T02:28:12;9.40;;;5.10;;
51270;SDS011;37744;50.960;4.136;2023-05-07T02:30:38;11.10;;;5.90;;
51270;SDS011;37744;50.960;4.136;2023-05-07T02:33:03;11.85;;;6.35;;
51270;SDS011;37744;50.960;4.136;2023-05-07T02:35:29;12.65;;;6.50;;
51270;SDS011;37744;50.960;4.136;2023-05-07T02:37:54;13.98;;;6.43;;
51270;SDS011;37744;50.960;4.136;2023-05-07T02:40:19;11.10;;;6.13;;
51270;SDS011;37744;50.960;4.136;2023-05-07T02:42:44;12.15;;;5.88;;
51270;SDS011;37744;50.960;4.136;2023-05-07T02:45:10;14.57;;;6.75;;
51270;SDS011;37744;50.960;4.136;2023-05-07T02:47:35;12.57;;;5.93;;
51270;SDS011;37744;50.960;4.136;2023-05-07T02:50:01;10.02;;;5.80;;
51270;SDS011;37744;50.960;4.136;2023-05-07T02:52:26;12.90;;;6.10;;
51270;SDS011;37744;50.960;4.136;2023-05-07T02:54:52;11.95;;;5.70;;
51270;SDS011;37744;50.960;4.136;2023-05-07T02:57:17;13.23;;;6.60;;
51270;SDS011;37744;50.960;4.136;2023-05-07T02:59:42;12.73;;;6.25;;
51270;SDS011;37744;50.960;4.136;2023-05-07T03:02:07;12.88;;;5.82;;
51270;SDS011;37744;50.960;4.136;2023-05-07T03:04:33;11.75;;;6.10;;
51270;SDS011;37744;50.960;4.136;2023-05-07T03:06:58;14.57;;;6.32;;
51270;SDS011;37744;50.960;4.136;2023-05-07T03:09:23;13.45;;;7.20;;
51270;SDS011;37744;50.960;4.136;2023-05-07T03:11:49;13.30;;;7.40;;
51270;SDS011;37744;50.960;4.136;2023-05-07T03:14:14;15.20;;;6.80;;
51270;SDS011;37744;50.960;4.136;2023-05-07T03:16:39;14.38;;;7.13;;
51270;SDS011;37744;50.960;4.136;2023-05-07T03:19:05;19.48;;;7.43;;
51270;SDS011;37744;50.960;4.136;2023-05-07T03:21:30;13.07;;;6.60;;
51270;SDS011;37744;50.960;4.136;2023-05-07T03:23:58;15.65;;;7.72;;
51270;SDS011;37744;50.960;4.136;2023-05-07T03:26:24;15.05;;;6.47;;
51270;SDS011;37744;50.960;4.136;2023-05-07T03:28:50;15.57;;;8.38;;
51270;SDS011;37744;50.960;4.136;2023-05-07T03:31:15;14.15;;;7.88;;
51270;SDS011;37744;50.960;4.136;2023-05-07T03:33:51;15.20;;;8.55;;
51270;SDS011;37744;50.960;4.136;2023-05-07T03:36:17;17.85;;;8.93;;
51270;SDS011;37744;50.960;4.136;2023-05-07T03:38:42;13.45;;;8.38;;
51270;SDS011;37744;50.960;4.136;2023-05-07T03:41:08;18.35;;;8.23;;
51270;SDS011;37744;50.960;4.136;2023-05-07T03:43:33;15.63;;;7.70;;
51270;SDS011;37744;50.960;4.136;2023-05-07T03:45:58;12.40;;;6.95;;
51270;SDS011;37744;50.960;4.136;2023-05-07T03:48:24;10.32;;;7.05;;
51270;SDS011;37744;50.960;4.136;2023-05-07T03:50:49;12.05;;;7.63;;
51270;SDS011;37744;50.960;4.136;2023-05-07T03:53:15;13.00;;;6.78;;
51270;SDS011;37744;50.960;4.136;2023-05-07T03:55:40;12.43;;;7.07;;
51270;SDS011;37744;50.960;4.136;2023-05-07T03:58:05;13.20;;;6.88;;
51270;SDS011;37744;50.960;4.136;2023-05-07T04:00:31;10.15;;;6.25;;
51270;SDS011;37744;50.960;4.136;2023-05-07T04:02:58;13.25;;;7.05;;
51270;SDS011;37744;50.960;4.136;2023-05-07T04:05:24;14.38;;;7.65;;
51270;SDS011;37744;50.960;4.136;2023-05-07T04:07:49;9.43;;;6.65;;
51270;SDS011;37744;50.960;4.136;2023-05-07T04:10:14;12.20;;;7.40;;
51270;SDS011;37744;50.960;4.136;2023-05-07T04:12:40;13.35;;;6.97;;
51270;SDS011;37744;50.960;4.136;2023-05-07T04:15:05;16.05;;;8.07;;
51270;SDS011;37744;50.960;4.136;2023-05-07T04:17:31;15.00;;;7.75;;
51270;SDS011;37744;50.960;4.136;2023-05-07T04:19:56;15.23;;;8.55;;
51270;SDS011;37744;50.960;4.136;2023-05-07T04:22:21;17.38;;;8.95;;
51270;SDS011;37744;50.960;4.136;2023-05-07T04:24:46;16.02;;;8.13;;
51270;SDS011;37744;50.960;4.136;2023-05-07T04:27:12;11.00;;;6.93;;
51270;SDS011;37744;50.960;4.136;2023-05-07T04:29:37;18.35;;;7.93;;
51270;SDS011;37744;50.960;4.136;2023-05-07T04:32:03;11.77;;;8.13;;
51270;SDS011;37744;50.960;4.136;2023-05-07T04:34:29;12.98;;;8.50;;
51270;SDS011;37744;50.960;4.136;2023-05-07T04:36:57;13.27;;;7.32;;
51270;SDS011;37744;50.960;4.136;2023-05-07T04:39:22;14.27;;;8.45;;
51270;SDS011;37744;50.960;4.136;2023-05-07T04:41:47;15.50;;;8.60;;
51270;SDS011;37744;50.960;4.136;2023-05-07T04:44:13;16.58;;;8.55;;
51270;SDS011;37744;50.960;4.136;2023-05-07T04:46:38;15.90;;;8.57;;
51270;SDS011;37744;50.960;4.136;2023-05-07T04:49:03;13.73;;;8.82;;
51270;SDS011;37744;50.960;4.136;2023-05-07T04:51:29;14.48;;;8.10;;
51270;SDS011;37744;50.960;4.136;2023-05-07T04:53:54;16.50;;;8.68;;
51270;SDS011;37744;50.960;4.136;2023-05-07T04:56:19;13.48;;;8.45;;
51270;SDS011;37744;50.960;4.136;2023-05-07T04:58:45;15.48;;;8.20;;
51270;SDS011;37744;50.960;4.136;2023-05-07T05:01:11;18.25;;;8.80;;
51270;SDS011;37744;50.960;4.136;2023-05-07T05:03:36;17.45;;;9.00;;
51270;SDS011;37744;50.960;4.136;2023-05-07T05:06:01;13.70;;;7.80;;
51270;SDS011;37744;50.960;4.136;2023-05-07T05:08:27;15.32;;;9.10;;
51270;SDS011;37744;50.960;4.136;2023-05-07T05:10:52;16.33;;;9.10;;
51270;SDS011;37744;50.960;4.136;2023-05-07T05:13:17;12.52;;;8.98;;
51270;SDS011;37744;50.960;4.136;2023-05-07T05:15:43;19.63;;;9.23;;
51270;SDS011;37744;50.960;4.136;2023-05-07T05:18:08;14.70;;;8.98;;
51270;SDS011;37744;50.960;4.136;2023-05-07T05:20:33;14.88;;;8.93;;
51270;SDS011;37744;50.960;4.136;2023-05-07T05:22:58;15.95;;;9.15;;
51270;SDS011;37744;50.960;4.136;2023-05-07T05:25:24;17.38;;;9.23;;
51270;SDS011;37744;50.960;4.136;2023-05-07T05:27:50;18.52;;;8.95;;
51270;SDS011;37744;50.960;4.136;2023-05-07T05:30:15;16.08;;;9.30;;
51270;SDS011;37744;50.960;4.136;2023-05-07T05:32:41;13.32;;;8.95;;
51270;SDS011;37744;50.960;4.136;2023-05-07T05:35:06;18.15;;;8.88;;
51270;SDS011;37744;50.960;4.136;2023-05-07T05:37:32;16.40;;;8.82;;
51270;SDS011;37744;50.960;4.136;2023-05-07T05:39:57;15.63;;;8.93;;
51270;SDS011;37744;50.960;4.136;2023-05-07T05:42:22;19.42;;;9.13;;
51270;SDS011;37744;50.960;4.136;2023-05-07T05:44:48;21.33;;;9.73;;
51270;SDS011;37744;50.960;4.136;2023-05-07T05:47:13;17.85;;;10.38;;
51270;SDS011;37744;50.960;4.136;2023-05-07T05:49:38;21.15;;;9.85;;
51270;SDS011;37744;50.960;4.136;2023-05-07T05:52:04;16.85;;;10.35;;
51270;SDS011;37744;50.960;4.136;2023-05-07T05:54:29;20.10;;;9.07;;
51270;SDS011;37744;50.960;4.136;2023-05-07T05:56:54;16.63;;;7.75;;
51270;SDS011;37744;50.960;4.136;2023-05-07T05:59:20;13.63;;;7.28;;
51270;SDS011;37744;50.960;4.136;2023-05-07T06:01:45;16.60;;;7.60;;
51270;SDS011;37744;50.960;4.136;2023-05-07T06:04:11;16.67;;;7.35;;
51270;SDS011;37744;50.960;4.136;2023-05-07T06:06:36;17.27;;;7.85;;
51270;SDS011;37744;50.960;4.136;2023-05-07T06:09:02;14.85;;;8.10;;
51270;SDS011;37744;50.960;4.136;2023-05-07T06:11:27;17.40;;;8.38;;
51270;SDS011;37744;50.960;4.136;2023-05-07T06:13:52;16.00;;;7.55;;
51270;SDS011;37744;50.960;4.136;2023-05-07T06:16:18;18.33;;;7.47;;
51270;SDS011;37744;50.960;4.136;2023-05-07T06:18:43;14.55;;;6.95;;
51270;SDS011;37744;50.960;4.136;2023-05-07T06:21:10;17.92;;;7.75;;
51270;SDS011;37744;50.960;4.136;2023-05-07T06:23:35;15.20;;;6.97;;
51270;SDS011;37744;50.960;4.136;2023-05-07T06:26:00;15.88;;;7.63;;
51270;SDS011;37744;50.960;4.136;2023-05-07T06:28:26;16.10;;;7.43;;
51270;SDS011;37744;50.960;4.136;2023-05-07T06:30:52;11.27;;;6.82;;
51270;SDS011;37744;50.960;4.136;2023-05-07T06:33:17;13.07;;;7.07;;
51270;SDS011;37744;50.960;4.136;2023-05-07T06:35:44;17.15;;;7.90;;
51270;SDS011;37744;50.960;4.136;2023-05-07T06:38:09;16.55;;;7.68;;
51270;SDS011;37744;50.960;4.136;2023-05-07T06:40:36;16.08;;;8.02;;
51270;SDS011;37744;50.960;4.136;2023-05-07T06:43:01;17.33;;;8.48;;
51270;SDS011;37744;50.960;4.136;2023-05-07T06:45:26;12.85;;;8.02;;
51270;SDS011;37744;50.960;4.136;2023-05-07T06:47:52;15.20;;;7.70;;
51270;SDS011;37744;50.960;4.136;2023-05-07T06:50:17;12.77;;;7.18;;
51270;SDS011;37744;50.960;4.136;2023-05-07T06:52:42;18.35;;;8.48;;
51270;SDS011;37744;50.960;4.136;2023-05-07T06:55:08;17.02;;;8.07;;
51270;SDS011;37744;50.960;4.136;2023-05-07T06:57:34;15.68;;;8.48;;
51270;SDS011;37744;50.960;4.136;2023-05-07T06:59:59;17.58;;;8.52;;
51270;SDS011;37744;50.960;4.136;2023-05-07T07:02:24;13.55;;;8.55;;
51270;SDS011;37744;50.960;4.136;2023-05-07T07:04:50;14.07;;;7.82;;
51270;SDS011;37744;50.960;4.136;2023-05-07T07:07:15;15.38;;;8.75;;
51270;SDS011;37744;50.960;4.136;2023-05-07T07:09:41;14.90;;;8.40;;
51270;SDS011;37744;50.960;4.136;2023-05-07T07:12:06;21.13;;;8.98;;
51270;SDS011;37744;50.960;4.136;2023-05-07T07:14:31;20.98;;;8.90;;
51270;SDS011;37744;50.960;4.136;2023-05-07T07:16:56;16.67;;;8.07;;
51270;SDS011;37744;50.960;4.136;2023-05-07T07:19:22;14.40;;;7.97;;
51270;SDS011;37744;50.960;4.136;2023-05-07T07:21:47;16.52;;;8.80;;
51270;SDS011;37744;50.960;4.136;2023-05-07T07:24:14;14.10;;;7.80;;
51270;SDS011;37744;50.960;4.136;2023-05-07T07:26:44;19.27;;;8.13;;
51270;SDS011;37744;50.960;4.136;2023-05-07T07:29:10;12.70;;;8.00;;
51270;SDS011;37744;50.960;4.136;2023-05-07T07:31:36;18.08;;;8.77;;
51270;SDS011;37744;50.960;4.136;2023-05-07T07:34:01;17.75;;;8.50;;
51270;SDS011;37744;50.960;4.136;2023-05-07T07:36:26;12.95;;;8.20;;
51270;SDS011;37744;50.960;4.136;2023-05-07T07:38:52;16.90;;;7.82;;
51270;SDS011;37744;50.960;4.136;2023-05-07T07:41:17;16.23;;;8.13;;
51270;SDS011;37744;50.960;4.136;2023-05-07T07:43:43;16.83;;;8.68;;
51270;SDS011;37744;50.960;4.136;2023-05-07T07:46:08;17.08;;;8.02;;
51270;SDS011;37744;50.960;4.136;2023-05-07T07:48:33;14.25;;;8.30;;
51270;SDS011;37744;50.960;4.136;2023-05-07T07:50:59;16.17;;;7.30;;
51270;SDS011;37744;50.960;4.136;2023-05-07T07:53:24;14.50;;;7.43;;
51270;SDS011;37744;50.960;4.136;2023-05-07T07:55:50;14.35;;;7.78;;
51270;SDS011;37744;50.960;4.136;2023-05-07T07:58:15;21.17;;;8.93;;
51270;SDS011;37744;50.960;4.136;2023-05-07T08:00:40;15.15;;;7.65;;
51270;SDS011;37744;50.960;4.136;2023-05-07T08:03:08;15.40;;;7.85;;
51270;SDS011;37744;50.960;4.136;2023-05-07T08:05:34;13.80;;;7.30;;
51270;SDS011;37744;50.960;4.136;2023-05-07T08:07:59;13.45;;;8.48;;
51270;SDS011;37744;50.960;4.136;2023-05-07T08:10:24;16.77;;;7.90;;
51270;SDS011;37744;50.960;4.136;2023-05-07T08:12:52;16.55;;;7.28;;
51270;SDS011;37744;50.960;4.136;2023-05-07T08:15:17;18.50;;;8.23;;
51270;SDS011;37744;50.960;4.136;2023-05-07T08:17:43;14.32;;;7.47;;
51270;SDS011;37744;50.960;4.136;2023-05-07T08:20:08;14.50;;;7.95;;
51270;SDS011;37744;50.960;4.136;2023-05-07T08:22:34;10.02;;;6.55;;
51270;SDS011;37744;50.960;4.136;2023-05-07T08:24:59;11.77;;;5.78;;
51270;SDS011;37744;50.960;4.136;2023-05-07T08:27:25;11.98;;;6.63;;
51270;SDS011;37744;50.960;4.136;2023-05-07T08:29:50;15.00;;;6.57;;
51270;SDS011;37744;50.960;4.136;2023-05-07T08:32:16;11.05;;;6.15;;
51270;SDS011;37744;50.960;4.136;2023-05-07T08:34:41;11.05;;;5.75;;
51270;SDS011;37744;50.960;4.136;2023-05-07T08:37:06;11.18;;;6.57;;
51270;SDS011;37744;50.960;4.136;2023-05-07T08:39:33;14.77;;;7.68;;
51270;SDS011;37744;50.960;4.136;2023-05-07T08:41:59;12.95;;;7.07;;
51270;SDS011;37744;50.960;4.136;2023-05-07T08:44:25;14.65;;;7.85;;
51270;SDS011;37744;50.960;4.136;2023-05-07T08:46:53;13.23;;;7.25;;
51270;SDS011;37744;50.960;4.136;2023-05-07T08:49:20;14.38;;;7.40;;
51270;SDS011;37744;50.960;4.136;2023-05-07T08:51:46;11.13;;;6.43;;
51270;SDS011;37744;50.960;4.136;2023-05-07T08:54:11;12.20;;;6.53;;
51270;SDS011;37744;50.960;4.136;2023-05-07T08:56:37;12.77;;;6.15;;
51270;SDS011;37744;50.960;4.136;2023-05-07T08:59:05;12.85;;;6.15;;
51270;SDS011;37744;50.960;4.136;2023-05-07T09:01:31;11.93;;;6.28;;
51270;SDS011;37744;50.960;4.136;2023-05-07T09:03:56;13.32;;;6.22;;
51270;SDS011;37744;50.960;4.136;2023-05-07T09:06:22;15.88;;;6.32;;
51270;SDS011;37744;50.960;4.136;2023-05-07T09:08:51;6.78;;;4.97;;
51270;SDS011;37744;50.960;4.136;2023-05-07T09:11:19;9.75;;;4.25;;
51270;SDS011;37744;50.960;4.136;2023-05-07T09:13:45;9.65;;;5.20;;
51270;SDS011;37744;50.960;4.136;2023-05-07T09:16:12;9.43;;;5.50;;
51270;SDS011;37744;50.960;4.136;2023-05-07T09:18:41;13.57;;;6.00;;
51270;SDS011;37744;50.960;4.136;2023-05-07T09:21:09;13.38;;;6.40;;
51270;SDS011;37744;50.960;4.136;2023-05-07T09:23:34;12.30;;;6.60;;
51270;SDS011;37744;50.960;4.136;2023-05-07T09:26:00;12.57;;;6.60;;
51270;SDS011;37744;50.960;4.136;2023-05-07T09:28:28;12.20;;;6.65;;
51270;SDS011;37744;50.960;4.136;2023-05-07T09:30:53;9.60;;;5.43;;
51270;SDS011;37744;50.960;4.136;2023-05-07T09:33:21;10.20;;;6.63;;
51270;SDS011;37744;50.960;4.136;2023-05-07T09:35:50;12.18;;;7.85;;
51270;SDS011;37744;50.960;4.136;2023-05-07T09:38:16;12.45;;;7.93;;
51270;SDS011;37744;50.960;4.136;2023-05-07T09:40:44;10.82;;;6.00;;
51270;SDS011;37744;50.960;4.136;2023-05-07T09:43:10;10.48;;;5.50;;
51270;SDS011;37744;50.960;4.136;2023-05-07T09:45:36;11.43;;;6.45;;
51270;SDS011;37744;50.960;4.136;2023-05-07T09:48:03;14.48;;;7.72;;
51270;SDS011;37744;50.960;4.136;2023-05-07T09:50:35;11.23;;;6.00;;
51270;SDS011;37744;50.960;4.136;2023-05-07T09:53:02;12.05;;;6.00;;
51270;SDS011;37744;50.960;4.136;2023-05-07T09:55:30;7.30;;;4.55;;
51270;SDS011;37744;50.960;4.136;2023-05-07T09:57:55;8.35;;;4.70;;
51270;SDS011;37744;50.960;4.136;2023-05-07T10:00:23;9.65;;;5.10;;
51270;SDS011;37744;50.960;4.136;2023-05-07T10:02:49;7.03;;;5.00;;
51270;SDS011;37744;50.960;4.136;2023-05-07T10:05:17;9.27;;;5.07;;
51270;SDS011;37744;50.960;4.136;2023-05-07T10:07:43;8.77;;;4.50;;
51270;SDS011;37744;50.960;4.136;2023-05-07T10:10:09;9.00;;;4.72;;
51270;SDS011;37744;50.960;4.136;2023-05-07T10:12:34;10.38;;;5.07;;
51270;SDS011;37744;50.960;4.136;2023-05-07T10:15:07;8.13;;;5.30;;
51270;SDS011;37744;50.960;4.136;2023-05-07T10:17:36;11.25;;;5.18;;
51270;SDS011;37744;50.960;4.136;2023-05-07T10:20:03;10.07;;;5.43;;
51270;SDS011;37744;50.960;4.136;2023-05-07T10:22:30;10.85;;;5.63;;
51270;SDS011;37744;50.960;4.136;2023-05-07T10:24:59;10.55;;;5.38;;
51270;SDS011;37744;50.960;4.136;2023-05-07T10:27:25;9.93;;;5.18;;
51270;SDS011;37744;50.960;4.136;2023-05-07T10:35:02;12.32;;;5.00;;
51270;SDS011;37744;50.960;4.136;2023-05-07T10:37:28;9.52;;;5.22;;
51270;SDS011;37744;50.960;4.136;2023-05-07T10:39:55;7.25;;;4.38;;
51270;SDS011;37744;50.960;4.136;2023-05-07T10:42:20;7.13;;;4.70;;
51270;SDS011;37744;50.960;4.136;2023-05-07T10:44:45;7.32;;;5.10;;
51270;SDS011;37744;50.960;4.136;2023-05-07T10:47:13;9.27;;;4.35;;
51270;SDS011;37744;50.960;4.136;2023-05-07T10:52:20;9.02;;;5.40;;
51270;SDS011;37744;50.960;4.136;2023-05-07T10:54:46;8.40;;;5.25;;
51270;SDS011;37744;50.960;4.136;2023-05-07T10:59:57;16.40;;;7.75;;
51270;SDS011;37744;50.960;4.136;2023-05-07T11:02:23;9.15;;;5.95;;
51270;SDS011;37744;50.960;4.136;2023-05-07T11:07:33;8.13;;;5.28;;
51270;SDS011;37744;50.960;4.136;2023-05-07T11:09:59;8.52;;;5.07;;
51270;SDS011;37744;50.960;4.136;2023-05-07T11:17:28;8.60;;;4.20;;
51270;SDS011;37744;50.960;4.136;2023-05-07T11:19:57;4.55;;;3.75;;
51270;SDS011;37744;50.960;4.136;2023-05-07T11:25:01;6.63;;;4.18;;
51270;SDS011;37744;50.960;4.136;2023-05-07T11:27:27;5.60;;;3.70;;
51270;SDS011;37744;50.960;4.136;2023-05-07T11:29:53;5.47;;;3.70;;
51270;SDS011;37744;50.960;4.136;2023-05-07T11:32:27;7.25;;;3.45;;
51270;SDS011;37744;50.960;4.136;2023-05-07T11:34:58;5.72;;;3.15;;
51270;SDS011;37744;50.960;4.136;2023-05-07T11:37:24;4.85;;;3.22;;
51270;SDS011;37744;50.960;4.136;2023-05-07T11:39:50;4.13;;;2.95;;
51270;SDS011;37744;50.960;4.136;2023-05-07T11:42:29;5.10;;;2.75;;
51270;SDS011;37744;50.960;4.136;2023-05-07T11:44:54;5.13;;;3.10;;
51270;SDS011;37744;50.960;4.136;2023-05-07T11:47:20;6.28;;;3.13;;
51270;SDS011;37744;50.960;4.136;2023-05-07T11:49:51;2.83;;;2.60;;
51270;SDS011;37744;50.960;4.136;2023-05-07T11:52:20;5.00;;;2.97;;
51270;SDS011;37744;50.960;4.136;2023-05-07T11:54:53;5.53;;;3.65;;
51270;SDS011;37744;50.960;4.136;2023-05-07T11:57:19;4.95;;;3.78;;
51270;SDS011;37744;50.960;4.136;2023-05-07T11:59:45;4.15;;;3.42;;
51270;SDS011;37744;50.960;4.136;2023-05-07T12:02:16;4.55;;;3.70;;
51270;SDS011;37744;50.960;4.136;2023-05-07T12:04:42;5.85;;;3.40;;
51270;SDS011;37744;50.960;4.136;2023-05-07T12:07:16;4.05;;;3.45;;
51270;SDS011;37744;50.960;4.136;2023-05-07T12:12:11;5.68;;;3.40;;
51270;SDS011;37744;50.960;4.136;2023-05-07T12:14:41;5.40;;;3.35;;
51270;SDS011;37744;50.960;4.136;2023-05-07T12:17:07;5.22;;;3.25;;
51270;SDS011;37744;50.960;4.136;2023-05-07T12:19:33;5.32;;;3.15;;
51270;SDS011;37744;50.960;4.136;2023-05-07T12:21:59;6.75;;;3.35;;
51270;SDS011;37744;50.960;4.136;2023-05-07T12:24:27;3.10;;;2.63;;
51270;SDS011;37744;50.960;4.136;2023-05-07T12:26:53;7.72;;;2.70;;
51270;SDS011;37744;50.960;4.136;2023-05-07T12:29:23;4.05;;;3.17;;
51270;SDS011;37744;50.960;4.136;2023-05-07T12:31:50;3.05;;;2.60;;
51270;SDS011;37744;50.960;4.136;2023-05-07T12:34:17;3.85;;;2.70;;
51270;SDS011;37744;50.960;4.136;2023-05-07T12:36:42;2.92;;;2.58;;
51270;SDS011;37744;50.960;4.136;2023-05-07T12:39:09;6.38;;;3.30;;
51270;SDS011;37744;50.960;4.136;2023-05-07T12:44:23;4.90;;;3.65;;
51270;SDS011;37744;50.960;4.136;2023-05-07T12:46:50;4.97;;;3.17;;
51270;SDS011;37744;50.960;4.136;2023-05-07T12:49:16;5.05;;;3.13;;
51270;SDS011;37744;50.960;4.136;2023-05-07T12:51:46;5.15;;;2.70;;
51270;SDS011;37744;50.960;4.136;2023-05-07T12:54:14;6.10;;;3.22;;
51270;SDS011;37744;50.960;4.136;2023-05-07T12:56:39;4.43;;;3.30;;
51270;SDS011;37744;50.960;4.136;2023-05-07T13:01:34;5.20;;;3.20;;
51270;SDS011;37744;50.960;4.136;2023-05-07T13:04:03;6.88;;;3.42;;
51270;SDS011;37744;50.960;4.136;2023-05-07T13:06:29;3.67;;;3.33;;
51270;SDS011;37744;50.960;4.136;2023-05-07T13:08:54;3.63;;;3.22;;
51270;SDS011;37744;50.960;4.136;2023-05-07T13:11:20;6.53;;;3.83;;
51270;SDS011;37744;50.960;4.136;2023-05-07T13:13:45;5.28;;;3.65;;
51270;SDS011;37744;50.960;4.136;2023-05-07T13:16:11;5.40;;;4.15;;
51270;SDS011;37744;50.960;4.136;2023-05-07T13:18:37;4.03;;;3.67;;
51270;SDS011;37744;50.960;4.136;2023-05-07T13:21:02;6.32;;;3.58;;
51270;SDS011;37744;50.960;4.136;2023-05-07T13:23:29;6.47;;;4.05;;
51270;SDS011;37744;50.960;4.136;2023-05-07T13:25:54;7.88;;;3.90;;
51270;SDS011;37744;50.960;4.136;2023-05-07T13:28:20;6.90;;;4.70;;
51270;SDS011;37744;50.960;4.136;2023-05-07T13:30:46;5.75;;;4.07;;
51270;SDS011;37744;50.960;4.136;2023-05-07T13:33:12;5.05;;;3.88;;
51270;SDS011;37744;50.960;4.136;2023-05-07T13:35:38;4.47;;;3.55;;
51270;SDS011;37744;50.960;4.136;2023-05-07T13:38:05;6.88;;;3.83;;
51270;SDS011;37744;50.960;4.136;2023-05-07T13:40:30;5.18;;;3.75;;
51270;SDS011;37744;50.960;4.136;2023-05-07T13:42:57;5.70;;;3.65;;
51270;SDS011;37744;50.960;4.136;2023-05-07T13:45:23;6.57;;;4.00;;
51270;SDS011;37744;50.960;4.136;2023-05-07T13:47:50;5.00;;;3.85;;
51270;SDS011;37744;50.960;4.136;2023-05-07T13:50:16;4.82;;;3.60;;
51270;SDS011;37744;50.960;4.136;2023-05-07T13:52:42;6.35;;;3.65;;
51270;SDS011;37744;50.960;4.136;2023-05-07T13:55:08;5.80;;;3.80;;
51270;SDS011;37744;50.960;4.136;2023-05-07T13:57:34;8.23;;;3.88;;
51270;SDS011;37744;50.960;4.136;2023-05-07T13:59:59;7.13;;;4.00;;
51270;SDS011;37744;50.960;4.136;2023-05-07T14:02:25;6.38;;;3.90;;
51270;SDS011;37744;50.960;4.136;2023-05-07T14:04:51;7.03;;;4.15;;
51270;SDS011;37744;50.960;4.136;2023-05-07T14:07:16;6.55;;;4.10;;
51270;SDS011;37744;50.960;4.136;2023-05-07T14:09:41;6.13;;;4.32;;
51270;SDS011;37744;50.960;4.136;2023-05-07T14:12:07;7.35;;;4.60;;
51270;SDS011;37744;50.960;4.136;2023-05-07T14:14:33;7.20;;;4.95;;
51270;SDS011;37744;50.960;4.136;2023-05-07T14:16:58;7.88;;;4.90;;
51270;SDS011;37744;50.960;4.136;2023-05-07T14:19:24;7.35;;;4.45;;
51270;SDS011;37744;50.960;4.136;2023-05-07T14:21:50;8.50;;;4.30;;
51270;SDS011;37744;50.960;4.136;2023-05-07T14:24:17;5.82;;;4.10;;
51270;SDS011;37744;50.960;4.136;2023-05-07T14:26:42;6.50;;;5.00;;
51270;SDS011;37744;50.960;4.136;2023-05-07T14:29:08;8.13;;;4.97;;
51270;SDS011;37744;50.960;4.136;2023-05-07T14:31:33;6.25;;;4.38;;
51270;SDS011;37744;50.960;4.136;2023-05-07T14:33:58;9.27;;;5.50;;
51270;SDS011;37744;50.960;4.136;2023-05-07T14:36:25;9.70;;;5.03;;
51270;SDS011;37744;50.960;4.136;2023-05-07T14:38:51;6.45;;;4.55;;
51270;SDS011;37744;50.960;4.136;2023-05-07T14:41:17;7.20;;;4.70;;
51270;SDS011;37744;50.960;4.136;2023-05-07T14:43:43;5.00;;;4.20;;
51270;SDS011;37744;50.960;4.136;2023-05-07T14:46:09;6.03;;;4.50;;
51270;SDS011;37744;50.960;4.136;2023-05-07T14:48:35;6.82;;;4.53;;
51270;SDS011;37744;50.960;4.136;2023-05-07T14:51:01;6.03;;;4.43;;
51270;SDS011;37744;50.960;4.136;2023-05-07T14:53:26;7.47;;;4.75;;
51270;SDS011;37744;50.960;4.136;2023-05-07T14:55:52;6.85;;;4.43;;
51270;SDS011;37744;50.960;4.136;2023-05-07T14:58:18;7.40;;;4.50;;
51270;SDS011;37744;50.960;4.136;2023-05-07T15:00:44;8.15;;;4.50;;